ENRH weather

Oslo Heliport, Rikshospitalet
Oslo, Oslo, Norway

Public forecast

Using degrees Celsius for public forecast. Weather courtesy of forecast.io.

METAR (pilot weather report)

Closest report is Oslo, Fornebu Airport, 4.3 nm (8.0 km) SW. Retrieved 2019/05/21 07:20 UTC (37 minutes ago):

ENFB 210720Z AUTO 35018KT 0150NDV -RA FG NCD 08/08 Q1013 W///S4

TAF (pilot weather forecast)

Closest forecast is Oslo Gardermoen Airport, 18.7 nm (34.6 km) NE. Retrieved 2019/05/21 06:57 UTC (1 hour ago):

TAF ENGM 210500Z 2106/2206 02008KT 9999 SCT015 BKN030 TEMPO 2114/2122 4000 TSRA BKN012 SCT025CB TEMPO 2122/2206 2000 BR BKN003